sensor_id;sensor_type;location;lat;lon;timestamp;temperature;humidity
22838;DHT22;11585;51.450;-0.240;2023-05-21T00:03:50;16.00;99.90
22838;DHT22;11585;51.450;-0.240;2023-05-21T00:06:16;16.00;99.90
22838;DHT22;11585;51.450;-0.240;2023-05-21T00:12:07;15.90;99.90
22838;DHT22;11585;51.450;-0.240;2023-05-21T00:14:34;15.90;99.90
22838;DHT22;11585;51.450;-0.240;2023-05-21T00:17:05;15.90;99.90
22838;DHT22;11585;51.450;-0.240;2023-05-21T00:26:17;15.80;99.90
22838;DHT22;11585;51.450;-0.240;2023-05-21T00:28:43;15.70;99.90
22838;DHT22;11585;51.450;-0.240;2023-05-21T00:31:08;15.70;99.90
22838;DHT22;11585;51.450;-0.240;2023-05-21T00:33:34;15.70;99.90
22838;DHT22;11585;51.450;-0.240;2023-05-21T00:36:00;15.70;99.90
22838;DHT22;11585;51.450;-0.240;2023-05-21T00:38:26;15.70;99.90
22838;DHT22;11585;51.450;-0.240;2023-05-21T00:40:52;15.60;99.90
22838;DHT22;11585;51.450;-0.240;2023-05-21T00:43:17;15.60;99.90
22838;DHT22;11585;51.450;-0.240;2023-05-21T00:45:43;15.60;99.90
22838;DHT22;11585;51.450;-0.240;2023-05-21T00:48:11;15.60;99.90
22838;DHT22;11585;51.450;-0.240;2023-05-21T00:50:37;15.40;99.90
22838;DHT22;11585;51.450;-0.240;2023-05-21T00:53:05;15.60;99.90
22838;DHT22;11585;51.450;-0.240;2023-05-21T00:55:35;15.60;99.90
22838;DHT22;11585;51.450;-0.240;2023-05-21T00:58:00;15.50;99.90
22838;DHT22;11585;51.450;-0.240;2023-05-21T01:03:48;15.50;99.90
22838;DHT22;11585;51.450;-0.240;2023-05-21T01:06:16;15.40;99.90
22838;DHT22;11585;51.450;-0.240;2023-05-21T01:08:43;15.40;99.90
22838;DHT22;11585;51.450;-0.240;2023-05-21T01:11:09;15.40;99.90
22838;DHT22;11585;51.450;-0.240;2023-05-21T01:13:38;15.40;99.90
22838;DHT22;11585;51.450;-0.240;2023-05-21T01:16:06;15.40;99.90
22838;DHT22;11585;51.450;-0.240;2023-05-21T01:22:06;15.30;99.90
22838;DHT22;11585;51.450;-0.240;2023-05-21T01:24:32;15.30;99.90
22838;DHT22;11585;51.450;-0.240;2023-05-21T01:27:00;15.30;99.90
22838;DHT22;11585;51.450;-0.240;2023-05-21T01:35:22;15.20;99.90
22838;DHT22;11585;51.450;-0.240;2023-05-21T01:43:08;15.10;99.90
22838;DHT22;11585;51.450;-0.240;2023-05-21T01:45:37;15.10;99.90
22838;DHT22;11585;51.450;-0.240;2023-05-21T01:48:04;15.10;99.90
22838;DHT22;11585;51.450;-0.240;2023-05-21T01:53:42;15.10;99.90
22838;DHT22;11585;51.450;-0.240;2023-05-21T01:56:08;15.00;99.90
22838;DHT22;11585;51.450;-0.240;2023-05-21T02:01:41;15.00;99.90
22838;DHT22;11585;51.450;-0.240;2023-05-21T02:04:07;15.00;99.90
22838;DHT22;11585;51.450;-0.240;2023-05-21T02:06:33;14.90;99.90
22838;DHT22;11585;51.450;-0.240;2023-05-21T02:09:22;14.90;99.90
22838;DHT22;11585;51.450;-0.240;2023-05-21T02:11:47;14.90;99.90
22838;DHT22;11585;51.450;-0.240;2023-05-21T02:14:13;14.90;99.90
22838;DHT22;11585;51.450;-0.240;2023-05-21T02:16:39;14.90;99.90
22838;DHT22;11585;51.450;-0.240;2023-05-21T02:19:07;14.80;99.90
22838;DHT22;11585;51.450;-0.240;2023-05-21T02:21:35;14.80;99.90
22838;DHT22;11585;51.450;-0.240;2023-05-21T02:24:00;14.80;99.90
22838;DHT22;11585;51.450;-0.240;2023-05-21T02:26:26;14.80;99.90
22838;DHT22;11585;51.450;-0.240;2023-05-21T02:28:53;14.80;99.90
22838;DHT22;11585;51.450;-0.240;2023-05-21T02:31:19;14.80;99.90
22838;DHT22;11585;51.450;-0.240;2023-05-21T02:33:45;14.70;99.90
22838;DHT22;11585;51.450;-0.240;2023-05-21T02:36:11;14.70;99.90
22838;DHT22;11585;51.450;-0.240;2023-05-21T02:41:41;14.70;99.90
22838;DHT22;11585;51.450;-0.240;2023-05-21T02:44:07;14.70;99.90
22838;DHT22;11585;51.450;-0.240;2023-05-21T02:46:32;14.70;99.90
22838;DHT22;11585;51.450;-0.240;2023-05-21T02:52:05;14.70;99.90
22838;DHT22;11585;51.450;-0.240;2023-05-21T02:54:31;14.60;99.90
22838;DHT22;11585;51.450;-0.240;2023-05-21T02:56:57;14.60;99.90
22838;DHT22;11585;51.450;-0.240;2023-05-21T02:59:23;14.60;99.90
22838;DHT22;11585;51.450;-0.240;2023-05-21T03:01:48;14.60;99.90
22838;DHT22;11585;51.450;-0.240;2023-05-21T03:04:14;14.60;99.90
22838;DHT22;11585;51.450;-0.240;2023-05-21T03:06:41;14.50;99.90
22838;DHT22;11585;51.450;-0.240;2023-05-21T03:12:29;14.50;99.90
22838;DHT22;11585;51.450;-0.240;2023-05-21T03:18:17;14.40;99.90
22838;DHT22;11585;51.450;-0.240;2023-05-21T03:20:42;14.40;99.90
22838;DHT22;11585;51.450;-0.240;2023-05-21T03:23:11;14.40;99.90
22838;DHT22;11585;51.450;-0.240;2023-05-21T03:25:38;14.40;99.90
22838;DHT22;11585;51.450;-0.240;2023-05-21T03:28:04;14.40;99.90
22838;DHT22;11585;51.450;-0.240;2023-05-21T03:33:35;14.40;99.90
22838;DHT22;11585;51.450;-0.240;2023-05-21T03:36:01;14.30;99.90
22838;DHT22;11585;51.450;-0.240;2023-05-21T03:41:52;14.30;99.90
22838;DHT22;11585;51.450;-0.240;2023-05-21T03:44:17;14.30;99.90
22838;DHT22;11585;51.450;-0.240;2023-05-21T03:46:43;14.30;99.90
22838;DHT22;11585;51.450;-0.240;2023-05-21T03:49:10;14.30;99.90
22838;DHT22;11585;51.450;-0.240;2023-05-21T03:51:35;14.30;99.90
22838;DHT22;11585;51.450;-0.240;2023-05-21T03:54:02;14.20;99.90
22838;DHT22;11585;51.450;-0.240;2023-05-21T03:56:28;14.20;99.90
22838;DHT22;11585;51.450;-0.240;2023-05-21T03:59:12;14.20;99.90
22838;DHT22;11585;51.450;-0.240;2023-05-21T04:01:38;14.20;99.90
22838;DHT22;11585;51.450;-0.240;2023-05-21T04:04:04;14.20;99.90
22838;DHT22;11585;51.450;-0.240;2023-05-21T04:06:29;14.20;99.90
22838;DHT22;11585;51.450;-0.240;2023-05-21T04:12:36;14.20;99.90
22838;DHT22;11585;51.450;-0.240;2023-05-21T04:15:02;14.10;99.90
22838;DHT22;11585;51.450;-0.240;2023-05-21T04:17:28;14.10;99.90
22838;DHT22;11585;51.450;-0.240;2023-05-21T04:19:54;14.10;99.90
22838;DHT22;11585;51.450;-0.240;2023-05-21T04:22:20;14.10;99.90
22838;DHT22;11585;51.450;-0.240;2023-05-21T04:24:47;14.10;99.90
22838;DHT22;11585;51.450;-0.240;2023-05-21T04:27:14;14.00;99.90
22838;DHT22;11585;51.450;-0.240;2023-05-21T04:29:43;14.10;99.90
22838;DHT22;11585;51.450;-0.240;2023-05-21T04:32:08;14.10;99.90
22838;DHT22;11585;51.450;-0.240;2023-05-21T04:34:34;14.00;99.90
22838;DHT22;11585;51.450;-0.240;2023-05-21T04:37:00;14.00;99.90
22838;DHT22;11585;51.450;-0.240;2023-05-21T04:39:27;14.00;99.90
22838;DHT22;11585;51.450;-0.240;2023-05-21T04:41:53;14.00;99.90
22838;DHT22;11585;51.450;-0.240;2023-05-21T04:44:20;14.00;99.90
22838;DHT22;11585;51.450;-0.240;2023-05-21T04:46:46;14.10;99.90
22838;DHT22;11585;51.450;-0.240;2023-05-21T04:49:33;14.00;99.90
22838;DHT22;11585;51.450;-0.240;2023-05-21T04:52:00;14.00;99.90
22838;DHT22;11585;51.450;-0.240;2023-05-21T04:54:26;14.00;99.90
22838;DHT22;11585;51.450;-0.240;2023-05-21T04:56:52;14.00;99.90
22838;DHT22;11585;51.450;-0.240;2023-05-21T04:59:18;14.00;99.90
22838;DHT22;11585;51.450;-0.240;2023-05-21T05:01:44;14.00;99.90
22838;DHT22;11585;51.450;-0.240;2023-05-21T05:04:10;14.00;99.90
22838;DHT22;11585;51.450;-0.240;2023-05-21T05:06:36;14.00;99.90
22838;DHT22;11585;51.450;-0.240;2023-05-21T05:12:05;14.00;99.90
22838;DHT22;11585;51.450;-0.240;2023-05-21T05:14:31;13.90;99.90
22838;DHT22;11585;51.450;-0.240;2023-05-21T05:16:57;13.90;99.90
22838;DHT22;11585;51.450;-0.240;2023-05-21T05:19:45;13.90;99.90
22838;DHT22;11585;51.450;-0.240;2023-05-21T05:22:11;13.90;99.90
22838;DHT22;11585;51.450;-0.240;2023-05-21T05:24:37;13.90;99.90
22838;DHT22;11585;51.450;-0.240;2023-05-21T05:27:02;13.90;99.90
22838;DHT22;11585;51.450;-0.240;2023-05-21T05:29:29;13.90;99.90
22838;DHT22;11585;51.450;-0.240;2023-05-21T05:31:55;13.90;99.90
22838;DHT22;11585;51.450;-0.240;2023-05-21T05:34:20;13.90;99.90
22838;DHT22;11585;51.450;-0.240;2023-05-21T05:36:46;13.90;99.90
22838;DHT22;11585;51.450;-0.240;2023-05-21T05:39:13;13.90;99.90
22838;DHT22;11585;51.450;-0.240;2023-05-21T05:41:38;13.90;99.90
22838;DHT22;11585;51.450;-0.240;2023-05-21T05:44:04;13.90;99.90
22838;DHT22;11585;51.450;-0.240;2023-05-21T05:46:29;13.80;99.90
22838;DHT22;11585;51.450;-0.240;2023-05-21T05:52:17;13.90;99.90
22838;DHT22;11585;51.450;-0.240;2023-05-21T05:54:43;13.90;99.90
22838;DHT22;11585;51.450;-0.240;2023-05-21T05:57:08;13.90;99.90
22838;DHT22;11585;51.450;-0.240;2023-05-21T06:02:38;14.00;99.90
22838;DHT22;11585;51.450;-0.240;2023-05-21T06:05:04;14.00;99.90
22838;DHT22;11585;51.450;-0.240;2023-05-21T06:07:31;14.00;99.90
22838;DHT22;11585;51.450;-0.240;2023-05-21T06:10:16;14.00;99.90
22838;DHT22;11585;51.450;-0.240;2023-05-21T06:12:41;14.00;99.90
22838;DHT22;11585;51.450;-0.240;2023-05-21T06:15:07;14.00;99.90
22838;DHT22;11585;51.450;-0.240;2023-05-21T06:17:33;14.00;99.90
22838;DHT22;11585;51.450;-0.240;2023-05-21T06:23:25;14.10;99.90
22838;DHT22;11585;51.450;-0.240;2023-05-21T06:25:51;14.10;99.90
22838;DHT22;11585;51.450;-0.240;2023-05-21T06:28:16;14.10;99.90
22838;DHT22;11585;51.450;-0.240;2023-05-21T06:30:42;14.10;99.90
22838;DHT22;11585;51.450;-0.240;2023-05-21T06:33:07;14.10;99.90
22838;DHT22;11585;51.450;-0.240;2023-05-21T06:35:33;14.20;99.90
22838;DHT22;11585;51.450;-0.240;2023-05-21T06:38:01;14.30;99.90
22838;DHT22;11585;51.450;-0.240;2023-05-21T06:46:54;14.50;99.90
22838;DHT22;11585;51.450;-0.240;2023-05-21T06:52:42;14.70;99.90
22838;DHT22;11585;51.450;-0.240;2023-05-21T06:55:26;14.80;99.90
22838;DHT22;11585;51.450;-0.240;2023-05-21T06:57:52;14.90;99.90
22838;DHT22;11585;51.450;-0.240;2023-05-21T07:03:39;15.00;99.90
22838;DHT22;11585;51.450;-0.240;2023-05-21T07:06:05;15.10;99.90
22838;DHT22;11585;51.450;-0.240;2023-05-21T07:08:51;15.20;99.90
22838;DHT22;11585;51.450;-0.240;2023-05-21T07:11:16;15.30;99.90
22838;DHT22;11585;51.450;-0.240;2023-05-21T07:13:42;15.40;99.90
22838;DHT22;11585;51.450;-0.240;2023-05-21T07:16:07;15.40;99.90
22838;DHT22;11585;51.450;-0.240;2023-05-21T07:21:38;15.60;99.90
22838;DHT22;11585;51.450;-0.240;2023-05-21T07:24:06;15.60;99.90
22838;DHT22;11585;51.450;-0.240;2023-05-21T07:26:31;15.70;99.90
22838;DHT22;11585;51.450;-0.240;2023-05-21T07:29:16;15.70;99.90
22838;DHT22;11585;51.450;-0.240;2023-05-21T07:31:41;15.80;99.90
22838;DHT22;11585;51.450;-0.240;2023-05-21T07:34:07;15.80;99.90
22838;DHT22;11585;51.450;-0.240;2023-05-21T07:36:33;15.90;99.90
22838;DHT22;11585;51.450;-0.240;2023-05-21T07:42:03;16.00;99.90
22838;DHT22;11585;51.450;-0.240;2023-05-21T07:44:28;16.00;99.90
22838;DHT22;11585;51.450;-0.240;2023-05-21T07:46:55;16.00;99.90
22838;DHT22;11585;51.450;-0.240;2023-05-21T07:49:39;16.00;99.90
22838;DHT22;11585;51.450;-0.240;2023-05-21T07:52:05;16.10;99.90
22838;DHT22;11585;51.450;-0.240;2023-05-21T07:54:31;16.10;99.90
22838;DHT22;11585;51.450;-0.240;2023-05-21T07:56:56;16.10;99.90
22838;DHT22;11585;51.450;-0.240;2023-05-21T07:59:24;16.20;99.90
22838;DHT22;11585;51.450;-0.240;2023-05-21T08:01:59;16.20;99.90
22838;DHT22;11585;51.450;-0.240;2023-05-21T08:04:25;16.20;99.90
22838;DHT22;11585;51.450;-0.240;2023-05-21T08:06:51;16.20;99.90
22838;DHT22;11585;51.450;-0.240;2023-05-21T08:12:07;16.30;99.90
22838;DHT22;11585;51.450;-0.240;2023-05-21T08:14:33;16.30;99.90
22838;DHT22;11585;51.450;-0.240;2023-05-21T08:16:58;16.40;99.90
22838;DHT22;11585;51.450;-0.240;2023-05-21T08:19:43;16.40;99.90
22838;DHT22;11585;51.450;-0.240;2023-05-21T08:22:08;16.40;99.90
22838;DHT22;11585;51.450;-0.240;2023-05-21T08:24:34;16.40;99.90
22838;DHT22;11585;51.450;-0.240;2023-05-21T08:27:02;16.40;99.90
22838;DHT22;11585;51.450;-0.240;2023-05-21T08:29:28;16.50;99.90
22838;DHT22;11585;51.450;-0.240;2023-05-21T08:31:54;16.50;99.90
22838;DHT22;11585;51.450;-0.240;2023-05-21T08:34:20;16.50;99.90
22838;DHT22;11585;51.450;-0.240;2023-05-21T08:36:45;16.50;99.90
22838;DHT22;11585;51.450;-0.240;2023-05-21T08:39:12;16.60;99.90
22838;DHT22;11585;51.450;-0.240;2023-05-21T08:41:38;16.60;99.90
22838;DHT22;11585;51.450;-0.240;2023-05-21T08:44:10;16.60;99.90
22838;DHT22;11585;51.450;-0.240;2023-05-21T08:46:39;16.70;99.90
22838;DHT22;11585;51.450;-0.240;2023-05-21T08:49:11;16.70;99.90
22838;DHT22;11585;51.450;-0.240;2023-05-21T08:51:50;16.70;99.90
22838;DHT22;11585;51.450;-0.240;2023-05-21T08:54:18;16.70;99.90
22838;DHT22;11585;51.450;-0.240;2023-05-21T08:56:44;16.80;99.90
22838;DHT22;11585;51.450;-0.240;2023-05-21T08:59:30;16.80;99.90
22838;DHT22;11585;51.450;-0.240;2023-05-21T09:01:57;16.90;99.90
22838;DHT22;11585;51.450;-0.240;2023-05-21T09:04:24;16.90;99.90
22838;DHT22;11585;51.450;-0.240;2023-05-21T09:06:50;16.90;99.90
22838;DHT22;11585;51.450;-0.240;2023-05-21T09:09:31;16.90;99.90
22838;DHT22;11585;51.450;-0.240;2023-05-21T09:11:57;17.00;99.90
22838;DHT22;11585;51.450;-0.240;2023-05-21T09:14:23;17.00;99.90
22838;DHT22;11585;51.450;-0.240;2023-05-21T09:16:50;17.00;99.90
22838;DHT22;11585;51.450;-0.240;2023-05-21T09:19:16;17.10;99.90
22838;DHT22;11585;51.450;-0.240;2023-05-21T09:21:44;17.10;99.90
22838;DHT22;11585;51.450;-0.240;2023-05-21T09:24:09;17.10;99.90
22838;DHT22;11585;51.450;-0.240;2023-05-21T09:26:35;17.20;99.90
22838;DHT22;11585;51.450;-0.240;2023-05-21T09:29:03;17.20;99.90
22838;DHT22;11585;51.450;-0.240;2023-05-21T09:31:29;17.20;99.90
22838;DHT22;11585;51.450;-0.240;2023-05-21T09:33:55;17.20;99.90
22838;DHT22;11585;51.450;-0.240;2023-05-21T09:36:21;17.30;99.90
22838;DHT22;11585;51.450;-0.240;2023-05-21T09:38:47;17.30;99.90
22838;DHT22;11585;51.450;-0.240;2023-05-21T09:41:13;17.30;99.90
22838;DHT22;11585;51.450;-0.240;2023-05-21T09:43:41;17.30;99.90
22838;DHT22;11585;51.450;-0.240;2023-05-21T09:46:10;17.30;99.90
22838;DHT22;11585;51.450;-0.240;2023-05-21T09:48:39;17.30;99.90
22838;DHT22;11585;51.450;-0.240;2023-05-21T09:54:02;17.40;99.90
22838;DHT22;11585;51.450;-0.240;2023-05-21T09:56:28;17.40;99.90
22838;DHT22;11585;51.450;-0.240;2023-05-21T09:58:58;17.40;99.90
22838;DHT22;11585;51.450;-0.240;2023-05-21T10:01:24;17.40;99.90
22838;DHT22;11585;51.450;-0.240;2023-05-21T10:03:58;17.40;99.90
22838;DHT22;11585;51.450;-0.240;2023-05-21T10:06:31;17.40;99.90
22838;DHT22;11585;51.450;-0.240;2023-05-21T10:08:59;17.40;99.90
22838;DHT22;11585;51.450;-0.240;2023-05-21T10:11:29;17.40;99.90
22838;DHT22;11585;51.450;-0.240;2023-05-21T10:14:16;17.40;99.90
22838;DHT22;11585;51.450;-0.240;2023-05-21T10:16:44;17.50;99.90
22838;DHT22;11585;51.450;-0.240;2023-05-21T10:19:12;17.50;99.90
22838;DHT22;11585;51.450;-0.240;2023-05-21T10:21:38;17.50;99.90
22838;DHT22;11585;51.450;-0.240;2023-05-21T10:24:06;17.50;99.90
22838;DHT22;11585;51.450;-0.240;2023-05-21T10:26:32;17.50;99.90
22838;DHT22;11585;51.450;-0.240;2023-05-21T10:28:59;17.50;99.90
22838;DHT22;11585;51.450;-0.240;2023-05-21T10:31:26;17.60;99.90
22838;DHT22;11585;51.450;-0.240;2023-05-21T10:33:53;17.50;99.90
22838;DHT22;11585;51.450;-0.240;2023-05-21T10:36:20;17.60;99.90
22838;DHT22;11585;51.450;-0.240;2023-05-21T10:38:48;17.60;99.90
22838;DHT22;11585;51.450;-0.240;2023-05-21T10:41:15;17.60;99.90
22838;DHT22;11585;51.450;-0.240;2023-05-21T11:00:51;17.70;99.90
22838;DHT22;11585;51.450;-0.240;2023-05-21T11:03:18;17.70;99.90
22838;DHT22;11585;51.450;-0.240;2023-05-21T11:05:54;17.70;99.90
22838;DHT22;11585;51.450;-0.240;2023-05-21T11:08:28;17.80;99.90
22838;DHT22;11585;51.450;-0.240;2023-05-21T11:11:00;17.80;99.90
22838;DHT22;11585;51.450;-0.240;2023-05-21T11:13:27;17.80;99.90
22838;DHT22;11585;51.450;-0.240;2023-05-21T11:21:09;17.80;99.90
22838;DHT22;11585;51.450;-0.240;2023-05-21T11:26:16;17.80;99.90
22838;DHT22;11585;51.450;-0.240;2023-05-21T11:28:42;17.80;99.90
22838;DHT22;11585;51.450;-0.240;2023-05-21T11:31:23;17.90;99.90
22838;DHT22;11585;51.450;-0.240;2023-05-21T11:34:14;17.90;99.90
22838;DHT22;11585;51.450;-0.240;2023-05-21T11:36:45;17.90;99.90
22838;DHT22;11585;51.450;-0.240;2023-05-21T11:39:24;17.90;99.90
22838;DHT22;11585;51.450;-0.240;2023-05-21T11:41:58;17.90;99.90
22838;DHT22;11585;51.450;-0.240;2023-05-21T11:44:43;17.90;99.90
22838;DHT22;11585;51.450;-0.240;2023-05-21T11:47:14;18.00;99.90
22838;DHT22;11585;51.450;-0.240;2023-05-21T11:49:39;18.00;99.90
22838;DHT22;11585;51.450;-0.240;2023-05-21T11:52:06;18.00;99.90
22838;DHT22;11585;51.450;-0.240;2023-05-21T11:54:38;18.00;99.90
22838;DHT22;11585;51.450;-0.240;2023-05-21T11:57:07;18.00;99.90
22838;DHT22;11585;51.450;-0.240;2023-05-21T11:59:33;18.00;99.90
22838;DHT22;11585;51.450;-0.240;2023-05-21T12:02:02;18.00;99.90
22838;DHT22;11585;51.450;-0.240;2023-05-21T12:04:32;18.10;99.90
22838;DHT22;11585;51.450;-0.240;2023-05-21T12:07:07;18.10;99.90
22838;DHT22;11585;51.450;-0.240;2023-05-21T12:09:46;18.10;99.90
22838;DHT22;11585;51.450;-0.240;2023-05-21T12:12:20;18.10;99.90
22838;DHT22;11585;51.450;-0.240;2023-05-21T12:14:47;18.10;99.90
22838;DHT22;11585;51.450;-0.240;2023-05-21T12:17:21;18.20;99.90
22838;DHT22;11585;51.450;-0.240;2023-05-21T12:19:49;18.20;99.90
22838;DHT22;11585;51.450;-0.240;2023-05-21T12:22:18;18.20;99.90
22838;DHT22;11585;51.450;-0.240;2023-05-21T12:24:44;18.30;99.90
22838;DHT22;11585;51.450;-0.240;2023-05-21T12:27:14;18.30;99.90
22838;DHT22;11585;51.450;-0.240;2023-05-21T12:29:46;18.30;99.90
22838;DHT22;11585;51.450;-0.240;2023-05-21T12:32:14;18.30;99.90
22838;DHT22;11585;51.450;-0.240;2023-05-21T12:37:17;18.40;99.90
22838;DHT22;11585;51.450;-0.240;2023-05-21T12:39:46;18.40;99.90
22838;DHT22;11585;51.450;-0.240;2023-05-21T12:42:14;18.40;99.90
22838;DHT22;11585;51.450;-0.240;2023-05-21T12:44:42;18.50;99.90
22838;DHT22;11585;51.450;-0.240;2023-05-21T12:47:09;18.50;99.90
22838;DHT22;11585;51.450;-0.240;2023-05-21T12:49:45;18.50;99.90
22838;DHT22;11585;51.450;-0.240;2023-05-21T12:52:14;18.50;99.90
22838;DHT22;11585;51.450;-0.240;2023-05-21T12:54:42;18.50;99.90
22838;DHT22;11585;51.450;-0.240;2023-05-21T12:57:13;18.60;99.90
22838;DHT22;11585;51.450;-0.240;2023-05-21T12:59:46;18.60;99.90
22838;DHT22;11585;51.450;-0.240;2023-05-21T13:02:19;18.60;99.90
22838;DHT22;11585;51.450;-0.240;2023-05-21T13:04:45;18.70;99.90
22838;DHT22;11585;51.450;-0.240;2023-05-21T13:07:12;18.70;99.90
22838;DHT22;11585;51.450;-0.240;2023-05-21T13:09:37;18.70;99.90
22838;DHT22;11585;51.450;-0.240;2023-05-21T13:12:03;18.70;99.90
22838;DHT22;11585;51.450;-0.240;2023-05-21T13:14:29;18.70;99.90
22838;DHT22;11585;51.450;-0.240;2023-05-21T13:16:54;18.70;99.90
22838;DHT22;11585;51.450;-0.240;2023-05-21T13:19:20;18.80;99.90
22838;DHT22;11585;51.450;-0.240;2023-05-21T13:21:45;18.80;99.90
22838;DHT22;11585;51.450;-0.240;2023-05-21T13:24:11;18.80;99.90
22838;DHT22;11585;51.450;-0.240;2023-05-21T13:26:37;18.80;99.90
22838;DHT22;11585;51.450;-0.240;2023-05-21T13:29:02;18.80;99.90
22838;DHT22;11585;51.450;-0.240;2023-05-21T13:31:28;18.80;99.90
22838;DHT22;11585;51.450;-0.240;2023-05-21T13:33:53;18.90;99.90
22838;DHT22;11585;51.450;-0.240;2023-05-21T13:36:19;18.90;99.90
22838;DHT22;11585;51.450;-0.240;2023-05-21T13:38:45;18.90;99.90
22838;DHT22;11585;51.450;-0.240;2023-05-21T13:41:10;18.90;99.90
22838;DHT22;11585;51.450;-0.240;2023-05-21T13:43:36;18.90;99.90
22838;DHT22;11585;51.450;-0.240;2023-05-21T13:46:02;18.90;99.90
22838;DHT22;11585;51.450;-0.240;2023-05-21T13:48:28;18.90;99.90
22838;DHT22;11585;51.450;-0.240;2023-05-21T13:50:56;18.90;99.90
22838;DHT22;11585;51.450;-0.240;2023-05-21T13:53:22;18.90;99.90
22838;DHT22;11585;51.450;-0.240;2023-05-21T13:55:48;18.90;99.90
22838;DHT22;11585;51.450;-0.240;2023-05-21T13:58:13;18.90;99.90
22838;DHT22;11585;51.450;-0.240;2023-05-21T14:00:39;18.90;99.90
22838;DHT22;11585;51.450;-0.240;2023-05-21T14:03:05;18.90;99.90
22838;DHT22;11585;51.450;-0.240;2023-05-21T14:05:35;18.90;99.90
22838;DHT22;11585;51.450;-0.240;2023-05-21T14:08:03;18.90;99.90
22838;DHT22;11585;51.450;-0.240;2023-05-21T14:10:49;18.90;99.90
22838;DHT22;11585;51.450;-0.240;2023-05-21T14:13:14;18.90;99.90
22838;DHT22;11585;51.450;-0.240;2023-05-21T14:15:41;18.90;99.90
22838;DHT22;11585;51.450;-0.240;2023-05-21T14:18:07;18.90;99.90
22838;DHT22;11585;51.450;-0.240;2023-05-21T14:20:36;18.90;99.90
22838;DHT22;11585;51.450;-0.240;2023-05-21T14:23:02;18.90;99.90
22838;DHT22;11585;51.450;-0.240;2023-05-21T14:25:28;19.00;99.90
22838;DHT22;11585;51.450;-0.240;2023-05-21T14:27:53;18.90;99.90
22838;DHT22;11585;51.450;-0.240;2023-05-21T14:30:20;19.00;99.90
22838;DHT22;11585;51.450;-0.240;2023-05-21T14:32:46;19.00;99.90
22838;DHT22;11585;51.450;-0.240;2023-05-21T14:35:12;19.00;99.90
22838;DHT22;11585;51.450;-0.240;2023-05-21T14:37:37;19.00;99.90
22838;DHT22;11585;51.450;-0.240;2023-05-21T14:40:24;19.00;99.90
22838;DHT22;11585;51.450;-0.240;2023-05-21T14:42:49;19.00;99.90
22838;DHT22;11585;51.450;-0.240;2023-05-21T14:45:17;19.00;99.90
22838;DHT22;11585;51.450;-0.240;2023-05-21T14:47:46;19.00;99.90
22838;DHT22;11585;51.450;-0.240;2023-05-21T14:50:14;19.00;99.90
22838;DHT22;11585;51.450;-0.240;2023-05-21T14:52:40;19.00;99.90
22838;DHT22;11585;51.450;-0.240;2023-05-21T14:55:07;19.00;99.90
22838;DHT22;11585;51.450;-0.240;2023-05-21T14:57:33;19.10;99.90
22838;DHT22;11585;51.450;-0.240;2023-05-21T15:00:01;19.10;99.90
22838;DHT22;11585;51.450;-0.240;2023-05-21T15:02:27;19.00;99.90
22838;DHT22;11585;51.450;-0.240;2023-05-21T15:04:52;19.10;99.90
22838;DHT22;11585;51.450;-0.240;2023-05-21T15:07:18;19.10;99.90
22838;DHT22;11585;51.450;-0.240;2023-05-21T15:12:37;19.10;99.90
22838;DHT22;11585;51.450;-0.240;2023-05-21T15:15:03;19.00;99.90
22838;DHT22;11585;51.450;-0.240;2023-05-21T15:17:29;19.10;99.90
22838;DHT22;11585;51.450;-0.240;2023-05-21T15:19:59;19.00;99.90
22838;DHT22;11585;51.450;-0.240;2023-05-21T15:22:27;19.00;99.90
22838;DHT22;11585;51.450;-0.240;2023-05-21T15:24:53;19.00;99.90
22838;DHT22;11585;51.450;-0.240;2023-05-21T15:27:18;19.00;99.90
22838;DHT22;11585;51.450;-0.240;2023-05-21T15:29:45;19.00;99.90
22838;DHT22;11585;51.450;-0.240;2023-05-21T15:32:10;19.00;99.90
22838;DHT22;11585;51.450;-0.240;2023-05-21T15:34:36;19.10;99.90
22838;DHT22;11585;51.450;-0.240;2023-05-21T15:37:02;19.00;99.90
22838;DHT22;11585;51.450;-0.240;2023-05-21T15:39:46;19.10;99.90
22838;DHT22;11585;51.450;-0.240;2023-05-21T15:42:15;19.10;99.90
22838;DHT22;11585;51.450;-0.240;2023-05-21T15:44:41;19.10;99.90
22838;DHT22;11585;51.450;-0.240;2023-05-21T15:47:06;19.10;99.90
22838;DHT22;11585;51.450;-0.240;2023-05-21T15:49:36;19.10;99.90
22838;DHT22;11585;51.450;-0.240;2023-05-21T15:52:02;19.10;99.90
22838;DHT22;11585;51.450;-0.240;2023-05-21T15:54:28;19.10;99.90
22838;DHT22;11585;51.450;-0.240;2023-05-21T15:56:54;19.10;99.90
22838;DHT22;11585;51.450;-0.240;2023-05-21T15:59:22;19.10;99.90
22838;DHT22;11585;51.450;-0.240;2023-05-21T16:01:54;19.10;99.90
22838;DHT22;11585;51.450;-0.240;2023-05-21T16:04:20;19.10;99.90
22838;DHT22;11585;51.450;-0.240;2023-05-21T16:06:46;19.10;99.90
22838;DHT22;11585;51.450;-0.240;2023-05-21T16:09:14;19.10;99.90
22838;DHT22;11585;51.450;-0.240;2023-05-21T16:11:40;19.10;99.90
22838;DHT22;11585;51.450;-0.240;2023-05-21T16:14:09;19.10;99.90
22838;DHT22;11585;51.450;-0.240;2023-05-21T16:16:35;19.10;99.90
22838;DHT22;11585;51.450;-0.240;2023-05-21T16:19:20;19.10;99.90
22838;DHT22;11585;51.450;-0.240;2023-05-21T16:21:46;19.10;99.90
22838;DHT22;11585;51.450;-0.240;2023-05-21T16:24:12;19.10;99.90
22838;DHT22;11585;51.450;-0.240;2023-05-21T16:26:37;19.10;99.90
22838;DHT22;11585;51.450;-0.240;2023-05-21T16:29:21;19.10;99.90
22838;DHT22;11585;51.450;-0.240;2023-05-21T16:31:47;19.10;99.90
22838;DHT22;11585;51.450;-0.240;2023-05-21T16:34:13;19.10;99.90
22838;DHT22;11585;51.450;-0.240;2023-05-21T16:36:38;19.10;99.90
22838;DHT22;11585;51.450;-0.240;2023-05-21T16:39:23;19.10;99.90
22838;DHT22;11585;51.450;-0.240;2023-05-21T16:41:51;19.10;99.90
22838;DHT22;11585;51.450;-0.240;2023-05-21T16:44:19;19.10;99.90
22838;DHT22;11585;51.450;-0.240;2023-05-21T16:46:45;19.10;99.90
22838;DHT22;11585;51.450;-0.240;2023-05-21T16:49:14;19.10;99.90
22838;DHT22;11585;51.450;-0.240;2023-05-21T16:51:40;19.10;99.90
22838;DHT22;11585;51.450;-0.240;2023-05-21T16:54:06;19.10;99.90
22838;DHT22;11585;51.450;-0.240;2023-05-21T16:56:31;19.10;99.90
22838;DHT22;11585;51.450;-0.240;2023-05-21T16:58:57;19.10;99.90
22838;DHT22;11585;51.450;-0.240;2023-05-21T17:01:23;19.10;99.90
22838;DHT22;11585;51.450;-0.240;2023-05-21T17:03:48;19.10;99.90
22838;DHT22;11585;51.450;-0.240;2023-05-21T17:06:14;19.10;99.90
22838;DHT22;11585;51.450;-0.240;2023-05-21T17:08:58;19.10;99.90
22838;DHT22;11585;51.450;-0.240;2023-05-21T17:11:24;19.10;99.90
22838;DHT22;11585;51.450;-0.240;2023-05-21T17:13:49;19.10;99.90
22838;DHT22;11585;51.450;-0.240;2023-05-21T17:16:15;19.00;99.90
22838;DHT22;11585;51.450;-0.240;2023-05-21T17:18:42;19.00;99.90
22838;DHT22;11585;51.450;-0.240;2023-05-21T17:21:08;19.00;99.90
22838;DHT22;11585;51.450;-0.240;2023-05-21T17:23:34;19.00;99.90
22838;DHT22;11585;51.450;-0.240;2023-05-21T17:25:59;19.00;99.90
22838;DHT22;11585;51.450;-0.240;2023-05-21T17:28:26;19.00;99.90